Time;durP1;ratioP1;P1;durP2;ratioP2;P2;SDS_P1;SDS_P2;PMS_P1;PMS_P2;Temp;Humidity;BMP_temperature;BMP_pressure;BME280_temperature;BME280_humidity;BME280_pressure;Samples;Min_cycle;Max_cycle;Signal;HPM_P1;HPM_P2
2023/12/01 00:01:11;;;;;;;39.97;20.07;;;-0.10;99.90;;;;;;9664107;23;20153;-88
2023/12/01 00:04:56;;;;;;;41.90;20.23;;;-0.30;99.90;;;;;;9662743;23;20182;-88
2023/12/01 00:08:42;;;;;;;40.10;19.43;;;-0.30;99.90;;;;;;9664192;23;20165;-87
2023/12/01 00:12:27;;;;;;;38.00;18.90;;;-0.30;99.90;;;;;;9664081;23;20183;-88
2023/12/01 00:16:13;;;;;;;43.40;20.07;;;-0.30;99.90;;;;;;9662818;23;20218;-87
2023/12/01 00:19:59;;;;;;;44.47;20.33;;;-0.30;99.90;;;;;;9663888;23;20164;-89
2023/12/01 00:23:44;;;;;;;43.77;21.47;;;-0.30;99.90;;;;;;9663608;23;20157;-88
2023/12/01 00:27:30;;;;;;;41.23;19.33;;;-0.30;99.90;;;;;;9689741;23;20651;-87
2023/12/01 00:31:16;;;;;;;40.10;19.60;;;-0.30;99.90;;;;;;9689908;23;20628;-87
2023/12/01 00:35:01;;;;;;;41.63;20.00;;;-0.30;99.90;;;;;;9661827;23;20196;-87
2023/12/01 00:38:47;;;;;;;42.30;19.47;;;-0.40;99.90;;;;;;9663127;23;20165;-87
2023/12/01 00:42:33;;;;;;;40.47;19.60;;;-0.50;99.90;;;;;;9689973;23;20176;-87
2023/12/01 00:46:18;;;;;;;39.73;19.00;;;-0.40;99.90;;;;;;9660811;23;20181;-87
2023/12/01 00:50:04;;;;;;;39.33;19.40;;;-0.40;99.90;;;;;;9661755;23;20161;-87
2023/12/01 00:53:50;;;;;;;43.17;20.27;;;-0.40;99.90;;;;;;9660996;23;20189;-87
2023/12/01 00:57:35;;;;;;;43.03;21.17;;;-0.40;99.90;;;;;;9662201;23;20232;-87
2023/12/01 01:01:22;;;;;;;40.00;19.57;;;-0.40;99.90;;;;;;9662547;23;20191;-88
2023/12/01 01:05:08;;;;;;;43.80;20.23;;;-0.40;99.90;;;;;;9661280;23;20195;-87
2023/12/01 01:08:53;;;;;;;44.70;21.83;;;-0.40;99.90;;;;;;9662534;23;20189;-87
2023/12/01 01:12:39;;;;;;;41.57;20.57;;;-0.40;99.90;;;;;;9662331;23;20162;-88
2023/12/01 01:16:25;;;;;;;41.03;20.43;;;-0.50;99.90;;;;;;9687922;23;20216;-87
2023/12/01 01:20:11;;;;;;;44.47;19.80;;;-0.50;99.90;;;;;;9662240;23;20157;-87
2023/12/01 01:23:56;;;;;;;40.60;20.13;;;-0.50;99.90;;;;;;9661172;23;20157;-87
2023/12/01 01:27:42;;;;;;;42.37;19.93;;;-0.50;99.90;;;;;;9661837;23;20197;-86
2023/12/01 01:31:27;;;;;;;43.93;21.00;;;-0.50;99.90;;;;;;9661945;23;20160;-86
2023/12/01 01:35:13;;;;;;;42.43;19.33;;;-0.50;99.90;;;;;;9660268;23;20195;-86
2023/12/01 01:38:59;;;;;;;43.27;20.07;;;-0.50;99.90;;;;;;9661697;23;20181;-86
2023/12/01 01:42:44;;;;;;;40.73;20.30;;;-0.50;99.90;;;;;;9661535;23;20153;-87
2023/12/01 01:46:30;;;;;;;41.43;20.43;;;-0.50;99.90;;;;;;9656883;23;20177;-86
2023/12/01 01:50:16;;;;;;;40.73;19.43;;;-0.50;99.90;;;;;;9661786;23;20153;-87
2023/12/01 01:54:03;;;;;;;42.00;20.53;;;-0.40;99.90;;;;;;9660717;23;20792;-86
2023/12/01 01:57:49;;;;;;;41.50;19.43;;;-0.50;99.90;;;;;;9661844;23;20729;-87
2023/12/01 02:01:39;;;;;;;43.57;19.47;;;-0.50;99.90;;;;;;9661280;23;20156;-87
2023/12/01 02:05:25;;;;;;;44.43;20.73;;;-0.50;99.90;;;;;;9660350;23;20177;-86
2023/12/01 02:09:11;;;;;;;41.77;19.87;;;-0.50;99.90;;;;;;9661103;23;20167;-86
2023/12/01 02:12:56;;;;;;;41.00;20.30;;;-0.50;99.90;;;;;;9660921;23;20183;-86
2023/12/01 02:16:48;;;;;;;44.67;19.13;;;-0.50;99.90;;;;;;9686650;23;20227;-86
2023/12/01 02:20:33;;;;;;;40.77;18.80;;;-0.50;99.90;;;;;;9660923;23;20184;-86
2023/12/01 02:24:19;;;;;;;43.83;20.60;;;-0.50;99.90;;;;;;9659886;23;20167;-86
2023/12/01 02:28:05;;;;;;;41.40;20.43;;;-0.50;99.90;;;;;;9660693;23;20208;-86
2023/12/01 02:31:50;;;;;;;40.50;19.37;;;-0.60;99.90;;;;;;9661016;23;20161;-86
2023/12/01 02:35:36;;;;;;;44.47;20.17;;;-0.60;99.90;;;;;;9659331;23;20200;-86
2023/12/01 02:39:21;;;;;;;38.53;19.17;;;-0.60;99.90;;;;;;9660539;23;20157;-86
2023/12/01 02:43:07;;;;;;;42.23;19.53;;;-0.60;99.90;;;;;;9660771;23;20532;-86
2023/12/01 02:46:53;;;;;;;42.07;19.50;;;-0.60;99.90;;;;;;9659402;23;20291;-87
2023/12/01 02:50:38;;;;;;;42.67;19.40;;;-0.60;99.90;;;;;;9660348;23;20192;-86
2023/12/01 02:54:24;;;;;;;40.80;19.53;;;-0.70;99.90;;;;;;9687204;23;20172;-86
2023/12/01 02:58:09;;;;;;;43.03;19.50;;;-0.60;99.90;;;;;;9689204;23;20169;-86
2023/12/01 03:01:55;;;;;;;41.77;19.07;;;-0.70;99.90;;;;;;9662151;23;20157;-86
2023/12/01 03:05:41;;;;;;;40.03;19.03;;;-0.70;99.90;;;;;;9661120;23;20271;-86
2023/12/01 03:09:26;;;;;;;38.47;19.67;;;-0.70;99.90;;;;;;9662532;23;20190;-86
2023/12/01 03:13:12;;;;;;;46.63;20.87;;;-0.70;99.90;;;;;;9663791;23;20637;-86
2023/12/01 03:16:57;;;;;;;40.97;19.90;;;-0.70;99.90;;;;;;9662175;23;20185;-87
2023/12/01 03:20:43;;;;;;;44.23;20.03;;;-0.70;99.90;;;;;;9664384;23;20714;-86
2023/12/01 03:24:28;;;;;;;41.60;19.50;;;-0.70;99.90;;;;;;9662567;23;20171;-85
2023/12/01 03:28:14;;;;;;;41.90;17.97;;;-0.70;99.90;;;;;;9690306;23;20239;-87
2023/12/01 03:32:00;;;;;;;41.60;19.70;;;-0.70;99.90;;;;;;9663407;23;20161;-86
2023/12/01 03:35:46;;;;;;;39.83;18.60;;;-0.70;99.90;;;;;;9661805;23;20196;-86
2023/12/01 03:39:31;;;;;;;39.43;19.30;;;-0.80;99.90;;;;;;9663620;23;20153;-86
2023/12/01 03:43:17;;;;;;;43.13;17.77;;;-0.80;99.90;;;;;;9663409;23;20596;-86
2023/12/01 03:47:03;;;;;;;37.80;18.43;;;-0.80;99.90;;;;;;9688831;23;20172;-85
2023/12/01 03:50:50;;;;;;;37.83;17.40;;;-0.80;99.90;;;;;;9662941;23;20160;-86
2023/12/01 03:54:36;;;;;;;37.17;18.17;;;-0.80;99.90;;;;;;9661440;23;20188;-87
2023/12/01 03:58:24;;;;;;;38.60;18.33;;;-0.70;99.90;;;;;;9662788;23;20157;-86
2023/12/01 04:02:10;;;;;;;38.10;17.73;;;-0.80;99.90;;;;;;9662725;23;20160;-84
2023/12/01 04:05:59;;;;;;;42.27;19.17;;;-0.80;99.90;;;;;;9661738;23;20188;-86
2023/12/01 04:09:45;;;;;;;40.03;18.70;;;-0.70;99.90;;;;;;9663122;23;20251;-86
2023/12/01 04:13:31;;;;;;;39.20;17.80;;;-0.80;99.90;;;;;;9677708;23;20265;-87
2023/12/01 04:17:18;;;;;;;41.07;19.93;;;-0.80;99.90;;;;;;9705115;22;20199;-87
2023/12/01 04:21:08;;;;;;;38.33;17.63;;;-0.80;99.90;;;;;;9706379;23;20159;-86
2023/12/01 04:24:55;;;;;;;43.30;19.40;;;-0.70;99.90;;;;;;9665216;23;20175;-86
2023/12/01 04:28:40;;;;;;;40.80;19.37;;;-0.70;99.90;;;;;;9662779;23;20248;-86
2023/12/01 04:32:26;;;;;;;47.13;20.93;;;-0.80;99.90;;;;;;9662437;23;20172;-86
2023/12/01 04:36:12;;;;;;;41.27;19.30;;;-0.70;99.90;;;;;;9661245;23;20200;-86
2023/12/01 04:39:58;;;;;;;43.73;19.87;;;-0.80;99.90;;;;;;9662546;23;20251;-87
2023/12/01 04:43:43;;;;;;;47.23;20.13;;;-0.80;99.90;;;;;;9661725;23;20174;-86
2023/12/01 04:47:29;;;;;;;45.07;19.77;;;-0.80;99.90;;;;;;9661643;23;20265;-86
2023/12/01 04:51:16;;;;;;;40.97;19.23;;;-0.80;99.90;;;;;;9662345;23;20160;-86
2023/12/01 04:55:02;;;;;;;41.13;19.23;;;-0.80;99.90;;;;;;9687665;23;20190;-86
2023/12/01 04:58:47;;;;;;;41.87;18.87;;;-0.80;99.90;;;;;;9661951;23;20156;-87
2023/12/01 05:02:33;;;;;;;41.40;19.43;;;-0.70;99.90;;;;;;9662333;23;20156;-86
2023/12/01 05:06:19;;;;;;;41.23;19.67;;;-0.70;99.90;;;;;;9660856;23;20208;-86
2023/12/01 05:10:08;;;;;;;45.17;20.03;;;-0.80;99.90;;;;;;9662101;23;20160;-87
2023/12/01 05:13:54;;;;;;;43.47;20.00;;;-0.80;99.90;;;;;;9661113;23;20682;-86
2023/12/01 05:17:39;;;;;;;48.03;21.30;;;-0.80;99.90;;;;;;9661767;23;20203;-86
2023/12/01 05:21:25;;;;;;;41.97;20.77;;;-0.80;99.90;;;;;;9662010;23;20159;-86
2023/12/01 05:25:13;;;;;;;45.03;22.20;;;-0.80;99.90;;;;;;9660286;23;20224;-87
2023/12/01 05:28:59;;;;;;;45.87;21.63;;;-0.70;99.90;;;;;;9661503;23;20192;-86
2023/12/01 05:32:46;;;;;;;40.60;19.30;;;-0.80;99.90;;;;;;9661661;23;20166;-86
2023/12/01 05:36:32;;;;;;;43.50;20.47;;;-0.80;99.90;;;;;;9660356;23;20195;-87
2023/12/01 05:40:22;;;;;;;40.67;18.70;;;-0.80;99.90;;;;;;9688214;23;20597;-86
2023/12/01 05:44:08;;;;;;;42.37;21.80;;;-0.80;99.90;;;;;;9659573;23;20160;-87
2023/12/01 05:47:55;;;;;;;49.63;21.20;;;-0.70;99.90;;;;;;9635704;23;20208;-85
2023/12/01 05:51:41;;;;;;;37.70;19.17;;;-0.80;99.90;;;;;;9661163;23;20161;-87
2023/12/01 05:55:29;;;;;;;49.20;22.10;;;-0.80;99.90;;;;;;9659725;23;20189;-87
2023/12/01 05:59:14;;;;;;;47.23;20.60;;;-0.80;99.90;;;;;;9660691;23;20153;-87
2023/12/01 06:03:06;;;;;;;50.33;23.63;;;-0.80;99.90;;;;;;9661277;23;20160;-86
2023/12/01 06:06:52;;;;;;;60.23;28.27;;;-0.80;99.90;;;;;;9659688;23;20177;-87
2023/12/01 06:10:40;;;;;;;54.60;25.97;;;-0.80;99.90;;;;;;9660007;23;20161;-86
2023/12/01 06:14:25;;;;;;;49.17;23.90;;;-0.80;99.90;;;;;;9656863;23;20188;-86
2023/12/01 06:18:13;;;;;;;52.23;25.50;;;-0.80;99.90;;;;;;9660021;23;20180;-86
2023/12/01 06:21:59;;;;;;;52.37;23.07;;;-0.80;99.90;;;;;;9660301;23;20150;-86
2023/12/01 06:25:46;;;;;;;52.40;27.97;;;-0.80;99.90;;;;;;9658215;23;20389;-86
2023/12/01 06:29:34;;;;;;;59.77;24.93;;;-0.80;99.90;;;;;;9686490;23;20154;-90
2023/12/01 06:33:20;;;;;;;51.43;22.00;;;-0.70;99.90;;;;;;9660628;23;20260;-86
2023/12/01 06:37:06;;;;;;;47.43;22.23;;;-0.70;99.90;;;;;;9659852;23;20176;-87
2023/12/01 06:40:54;;;;;;;54.50;24.50;;;-0.70;99.90;;;;;;9659771;23;20161;-87
2023/12/01 06:44:41;;;;;;;60.83;28.23;;;-0.70;99.90;;;;;;9683992;23;20154;-87
2023/12/01 06:48:27;;;;;;;68.40;31.30;;;-0.80;99.90;;;;;;9686565;23;20600;-88
2023/12/01 06:52:15;;;;;;;69.03;29.50;;;-0.80;99.90;;;;;;9660228;23;20495;-86
2023/12/01 06:56:02;;;;;;;62.47;28.43;;;-0.80;99.90;;;;;;9657673;23;20489;-87
2023/12/01 06:59:48;;;;;;;64.97;28.80;;;-0.80;99.90;;;;;;9635273;23;20169;-86
2023/12/01 07:03:35;;;;;;;57.90;27.37;;;-0.80;99.90;;;;;;9635661;23;20165;-87
2023/12/01 07:07:22;;;;;;;52.10;23.50;;;-0.70;99.90;;;;;;9635057;23;20208;-88
2023/12/01 07:11:08;;;;;;;52.63;24.67;;;-0.70;99.90;;;;;;9660774;23;20165;-87
2023/12/01 07:14:54;;;;;;;46.90;23.93;;;-0.60;99.90;;;;;;9658988;23;20199;-87
2023/12/01 07:18:40;;;;;;;47.03;22.33;;;-0.70;99.90;;;;;;9659719;23;20153;-88
2023/12/01 07:22:26;;;;;;;43.60;22.67;;;-0.80;99.90;;;;;;9659574;23;20544;-87
2023/12/01 07:26:11;;;;;;;48.07;22.23;;;-0.70;99.90;;;;;;9658945;23;20846;-89
2023/12/01 07:29:58;;;;;;;46.50;23.47;;;-0.70;99.90;;;;;;9661304;23;20161;-88
2023/12/01 07:33:43;;;;;;;56.43;24.27;;;-0.70;99.90;;;;;;9661237;23;20271;-89
2023/12/01 07:37:29;;;;;;;54.07;23.67;;;-0.70;99.90;;;;;;9660793;23;20173;-87
2023/12/01 07:41:15;;;;;;;52.53;24.73;;;-0.70;99.90;;;;;;9691297;23;20177;-89
2023/12/01 07:45:00;;;;;;;50.17;22.63;;;-0.70;99.90;;;;;;9664572;23;20219;-88
2023/12/01 07:48:46;;;;;;;48.37;22.30;;;-0.60;99.90;;;;;;9691531;23;20149;-89
2023/12/01 07:52:32;;;;;;;48.53;22.10;;;-0.60;99.90;;;;;;9664760;23;20183;-88
2023/12/01 07:56:22;;;;;;;47.17;21.00;;;-0.60;99.90;;;;;;9663732;23;20197;-88
2023/12/01 08:00:16;;;;;;;50.20;23.07;;;-0.60;99.90;;;;;;9665107;23;20154;-89
2023/12/01 08:04:02;;;;;;;58.23;26.73;;;-0.60;99.90;;;;;;9664309;23;20156;-89
2023/12/01 08:07:52;;;;;;;50.73;24.30;;;-0.60;99.90;;;;;;9664837;23;20181;-89
2023/12/01 08:11:38;;;;;;;48.63;21.97;;;-0.60;99.90;;;;;;9664966;23;20528;-88
2023/12/01 08:15:24;;;;;;;45.07;21.40;;;-0.60;99.90;;;;;;9663587;23;20223;-89
2023/12/01 08:19:33;;;;;;;53.20;23.57;;;-0.60;99.90;;;;;;9662385;23;20145;-88
2023/12/01 08:23:18;;;;;;;46.53;20.67;;;-0.60;99.90;;;;;;9664507;23;20150;-88
2023/12/01 08:27:05;;;;;;;48.37;24.17;;;-0.50;99.90;;;;;;9663807;23;20227;-89
2023/12/01 08:30:50;;;;;;;47.50;22.33;;;-0.60;99.90;;;;;;9664376;23;20187;-88
2023/12/01 08:34:36;;;;;;;44.43;21.90;;;-0.60;99.90;;;;;;9663766;23;20185;-89
2023/12/01 08:38:22;;;;;;;52.40;22.17;;;-0.60;99.90;;;;;;9664697;23;20460;-88
2023/12/01 08:42:08;;;;;;;43.30;20.07;;;-0.60;99.90;;;;;;9664407;23;20157;-88
2023/12/01 08:45:53;;;;;;;53.40;24.60;;;-0.60;99.90;;;;;;9663805;23;20192;-88
2023/12/01 08:49:40;;;;;;;51.70;23.43;;;-0.50;99.90;;;;;;9664050;23;20164;-89
2023/12/01 08:53:26;;;;;;;64.40;28.03;;;-0.40;99.90;;;;;;9663749;23;20193;-89
2023/12/01 08:57:12;;;;;;;57.07;25.20;;;-0.50;99.90;;;;;;9663269;23;20178;-86
2023/12/01 09:00:59;;;;;;;49.60;24.13;;;-0.30;99.90;;;;;;9690397;23;20156;-88
2023/12/01 09:04:45;;;;;;;54.90;25.90;;;-0.10;99.90;;;;;;9663729;23;20154;-88
2023/12/01 09:08:31;;;;;;;48.23;22.70;;;0.20;99.90;;;;;;9663410;23;20161;-89
2023/12/01 09:12:16;;;;;;;54.23;24.80;;;0.30;99.90;;;;;;9690066;23;20627;-88
2023/12/01 09:16:02;;;;;;;50.93;23.03;;;0.40;99.90;;;;;;9662861;23;20645;-89
2023/12/01 09:19:48;;;;;;;55.57;25.77;;;0.50;99.90;;;;;;9663378;23;20164;-89
2023/12/01 09:23:33;;;;;;;48.17;22.93;;;0.50;99.90;;;;;;9663210;23;20161;-88
2023/12/01 09:27:19;;;;;;;71.47;24.90;;;0.50;99.90;;;;;;9688443;23;20188;-87
2023/12/01 09:31:05;;;;;;;63.27;27.63;;;0.70;99.90;;;;;;9663342;23;20161;-89
2023/12/01 09:34:51;;;;;;;53.37;24.70;;;0.60;99.90;;;;;;9662692;23;20274;-89
2023/12/01 09:38:36;;;;;;;54.47;24.90;;;0.60;99.90;;;;;;9663388;23;20160;-87
2023/12/01 09:42:24;;;;;;;65.23;29.47;;;0.60;99.90;;;;;;9664014;23;20180;-89
2023/12/01 09:46:16;;;;;;;114.77;46.90;;;0.60;99.90;;;;;;9698503;22;20183;-90
2023/12/01 09:50:11;;;;;;;152.73;56.47;;;0.70;99.90;;;;;;9710052;22;20168;-89
2023/12/01 09:54:03;;;;;;;79.60;36.07;;;0.60;99.90;;;;;;9702085;22;20241;-89
2023/12/01 09:57:50;;;;;;;66.53;28.90;;;0.60;99.90;;;;;;9665775;23;20180;-89
2023/12/01 10:01:35;;;;;;;55.17;26.47;;;0.70;99.90;;;;;;9664118;23;20164;-89
2023/12/01 10:05:21;;;;;;;58.93;26.67;;;0.60;99.90;;;;;;9662852;23;20184;-89
2023/12/01 10:09:10;;;;;;;64.17;28.27;;;0.60;99.90;;;;;;9663024;23;20157;-89
2023/12/01 10:13:04;;;;;;;60.37;26.53;;;0.60;99.90;;;;;;9662878;23;20162;-89
2023/12/01 10:16:50;;;;;;;54.33;25.23;;;0.60;99.90;;;;;;9662111;23;20265;-89
2023/12/01 10:20:36;;;;;;;70.47;31.60;;;0.60;99.90;;;;;;9662230;23;20542;-87
2023/12/01 10:24:22;;;;;;;58.00;26.33;;;0.60;99.90;;;;;;9661442;23;20246;-88
2023/12/01 10:28:08;;;;;;;59.63;27.23;;;0.60;99.90;;;;;;9661106;23;20196;-88
2023/12/01 10:31:57;;;;;;;57.90;26.90;;;0.70;99.90;;;;;;9662432;23;20167;-89
2023/12/01 10:36:02;;;;;;;71.33;33.13;;;0.70;99.90;;;;;;9661620;23;20189;-89
2023/12/01 10:39:53;;;;;;;58.60;27.40;;;0.70;99.90;;;;;;9662213;23;20145;-89
2023/12/01 10:43:43;;;;;;;59.47;29.47;;;0.70;99.90;;;;;;9662486;23;20236;-89
2023/12/01 10:47:30;;;;;;;69.70;30.63;;;0.70;99.90;;;;;;9656847;23;20246;-88
2023/12/01 10:51:16;;;;;;;66.80;29.10;;;0.70;99.90;;;;;;9660924;23;20249;-89
2023/12/01 10:55:28;;;;;;;63.33;27.83;;;0.70;99.90;;;;;;9662185;23;20652;-89
2023/12/01 10:59:18;;;;;;;65.93;28.67;;;0.70;99.90;;;;;;9662509;23;20228;-88
2023/12/01 11:03:08;;;;;;;68.63;30.70;;;0.80;99.90;;;;;;9662312;23;20157;-89
2023/12/01 11:07:04;;;;;;;73.00;31.03;;;0.70;99.90;;;;;;9689656;23;20169;-89
2023/12/01 11:10:49;;;;;;;76.93;34.27;;;0.60;99.90;;;;;;9689157;23;20172;-89
2023/12/01 11:14:37;;;;;;;62.50;29.23;;;0.60;99.90;;;;;;9662878;23;20188;-88
2023/12/01 11:18:23;;;;;;;66.20;28.40;;;0.70;99.90;;;;;;9665793;23;20161;-89
2023/12/01 11:22:29;;;;;;;59.90;27.70;;;0.70;99.90;;;;;;9665842;23;20307;-89
2023/12/01 11:26:16;;;;;;;64.73;28.13;;;0.60;99.90;;;;;;9664038;23;20196;-89
2023/12/01 11:30:08;;;;;;;75.03;35.13;;;0.70;99.90;;;;;;9664802;23;20160;-89
2023/12/01 11:33:57;;;;;;;69.27;30.23;;;0.70;99.90;;;;;;9664841;23;20177;-89
2023/12/01 11:38:00;;;;;;;65.27;28.53;;;0.60;99.90;;;;;;9664984;23;20181;-89
2023/12/01 11:42:01;;;;;;;70.50;29.40;;;0.70;99.90;;;;;;9664570;23;20154;-89
2023/12/01 11:45:48;;;;;;;64.67;28.43;;;0.70;99.90;;;;;;9664861;23;20204;-88
2023/12/01 11:49:46;;;;;;;70.63;29.07;;;0.80;99.90;;;;;;9664709;23;20168;-88
2023/12/01 11:53:35;;;;;;;63.57;28.37;;;0.70;99.90;;;;;;9664779;23;20185;-89
2023/12/01 11:57:21;;;;;;;67.73;28.07;;;0.70;99.90;;;;;;9664832;23;20246;-88
2023/12/01 12:01:07;;;;;;;72.80;33.20;;;0.70;99.90;;;;;;9664960;23;20161;-88
2023/12/01 12:05:00;;;;;;;75.73;30.30;;;0.70;99.90;;;;;;9664741;23;20208;-89
2023/12/01 12:08:47;;;;;;;76.40;31.23;;;0.70;99.90;;;;;;9664634;23;20152;-89
2023/12/01 12:12:33;;;;;;;80.37;35.83;;;0.70;99.90;;;;;;9691156;23;20524;-89
2023/12/01 12:16:20;;;;;;;75.30;30.67;;;0.60;99.90;;;;;;9664372;23;20227;-89
2023/12/01 12:20:09;;;;;;;71.33;30.67;;;0.70;99.90;;;;;;9664805;23;20239;-90
2023/12/01 12:23:59;;;;;;;77.40;31.87;;;0.70;99.90;;;;;;9664204;23;20162;-89
2023/12/01 12:27:44;;;;;;;73.03;30.47;;;0.60;99.90;;;;;;9663549;23;20192;-88
2023/12/01 12:31:32;;;;;;;74.00;28.90;;;0.70;99.90;;;;;;9664351;23;20163;-89
2023/12/01 12:35:30;;;;;;;75.77;32.37;;;0.70;99.90;;;;;;9663960;23;20199;-88
2023/12/01 12:39:19;;;;;;;106.77;44.53;;;0.70;99.90;;;;;;9664181;23;20145;-89
2023/12/01 12:43:05;;;;;;;88.27;34.50;;;0.70;99.90;;;;;;9663914;23;20176;-88
2023/12/01 12:47:00;;;;;;;76.80;32.40;;;0.70;99.90;;;;;;9664163;23;20183;-88
2023/12/01 12:50:46;;;;;;;77.53;31.63;;;0.70;99.90;;;;;;9664076;23;20632;-88
2023/12/01 12:54:32;;;;;;;69.03;29.97;;;0.70;99.90;;;;;;9663509;23;20261;-90
2023/12/01 12:58:18;;;;;;;79.60;31.97;;;0.60;99.90;;;;;;9663784;23;20158;-89
2023/12/01 13:02:04;;;;;;;79.87;33.77;;;0.70;99.90;;;;;;9663781;23;20183;-89
2023/12/01 13:05:50;;;;;;;75.57;33.53;;;0.70;99.90;;;;;;9663891;23;20200;-89
2023/12/01 13:09:37;;;;;;;78.80;33.30;;;0.70;99.90;;;;;;9690489;23;20581;-89
2023/12/01 13:13:23;;;;;;;70.63;30.33;;;0.60;99.90;;;;;;9663318;23;20164;-88
2023/12/01 13:17:09;;;;;;;72.43;31.63;;;0.80;99.90;;;;;;9663880;23;20260;-88
2023/12/01 13:20:54;;;;;;;76.33;32.00;;;0.60;99.90;;;;;;9663603;23;20158;-89
2023/12/01 13:24:40;;;;;;;76.47;33.47;;;0.80;99.90;;;;;;9663356;23;20165;-88
2023/12/01 13:28:26;;;;;;;79.23;33.47;;;0.70;99.90;;;;;;9663827;23;20174;-88
2023/12/01 13:32:11;;;;;;;69.73;30.67;;;0.60;99.90;;;;;;9662959;23;20160;-89
2023/12/01 13:35:58;;;;;;;87.27;35.93;;;0.70;99.90;;;;;;9663183;23;20193;-91
2023/12/01 13:39:43;;;;;;;85.13;36.80;;;0.60;99.90;;;;;;9663784;23;20160;-88
2023/12/01 13:43:29;;;;;;;78.97;37.00;;;0.60;99.90;;;;;;9663279;23;20239;-89
2023/12/01 13:47:48;;;;;;;73.03;33.10;;;0.60;99.90;;;;;;9662972;23;20178;-90
2023/12/01 13:51:33;;;;;;;75.67;33.47;;;0.60;99.90;;;;;;9662825;23;20162;-89
2023/12/01 13:55:33;;;;;;;72.80;30.83;;;0.60;99.90;;;;;;9662410;23;20202;-90
2023/12/01 13:59:29;;;;;;;70.27;31.63;;;0.60;99.90;;;;;;9662966;23;20514;-88
2023/12/01 14:03:49;;;;;;;69.93;31.10;;;0.60;99.90;;;;;;9662982;23;20153;-89
2023/12/01 14:07:35;;;;;;;73.50;34.10;;;0.60;99.90;;;;;;9662773;23;20180;-89
2023/12/01 14:11:21;;;;;;;74.00;33.63;;;0.50;99.90;;;;;;9662506;23;20160;-89
2023/12/01 14:15:07;;;;;;;64.03;30.23;;;0.60;99.90;;;;;;9662051;23;20189;-92
2023/12/01 14:18:53;;;;;;;93.07;43.90;;;0.50;99.90;;;;;;9662718;23;20164;-89
2023/12/01 14:22:39;;;;;;;67.27;30.03;;;0.50;99.90;;;;;;9662514;23;20588;-89
2023/12/01 14:26:24;;;;;;;72.13;32.10;;;0.50;99.90;;;;;;9662334;23;20526;-89
2023/12/01 14:30:10;;;;;;;79.30;34.93;;;0.60;99.90;;;;;;9662434;23;20157;-89
2023/12/01 14:34:23;;;;;;;68.10;31.40;;;0.50;99.90;;;;;;9662829;23;20264;-89
2023/12/01 14:38:09;;;;;;;65.53;30.40;;;0.50;99.90;;;;;;9662515;23;20207;-89
2023/12/01 14:41:55;;;;;;;78.80;32.93;;;0.50;99.90;;;;;;9662292;23;20689;-89
2023/12/01 14:45:41;;;;;;;75.60;34.23;;;0.50;99.90;;;;;;9662115;23;20517;-89
2023/12/01 14:49:27;;;;;;;92.17;40.60;;;0.50;99.90;;;;;;9661981;23;20165;-88
2023/12/01 14:53:12;;;;;;;75.30;33.40;;;0.50;99.90;;;;;;9662067;23;20157;-90
2023/12/01 14:56:59;;;;;;;83.03;38.23;;;0.40;99.90;;;;;;9637361;23;20250;-89
2023/12/01 15:00:45;;;;;;;80.37;34.90;;;0.50;99.90;;;;;;9662551;23;20647;-89
2023/12/01 15:04:35;;;;;;;73.67;30.77;;;0.40;99.90;;;;;;9662785;23;20661;-88
2023/12/01 15:08:21;;;;;;;65.50;30.00;;;0.40;99.90;;;;;;9670712;22;20141;-93
2023/12/01 15:12:07;;;;;;;73.87;32.63;;;0.40;99.90;;;;;;9707804;22;20156;-93
2023/12/01 15:15:52;;;;;;;62.17;29.67;;;0.40;99.90;;;;;;9710064;22;20196;-89
2023/12/01 15:19:38;;;;;;;70.13;32.33;;;0.40;99.90;;;;;;9698928;22;20336;-88
2023/12/01 15:23:23;;;;;;;60.07;28.27;;;0.40;99.90;;;;;;9666843;23;20255;-88
2023/12/01 15:27:09;;;;;;;64.87;29.80;;;0.50;99.90;;;;;;9663737;23;20195;-90
2023/12/01 15:30:55;;;;;;;71.43;31.40;;;0.40;99.90;;;;;;9663001;23;20207;-89
2023/12/01 15:34:40;;;;;;;83.27;35.53;;;0.50;99.90;;;;;;9661712;23;20276;-88
2023/12/01 15:38:26;;;;;;;73.63;32.53;;;0.40;99.90;;;;;;9661939;23;20157;-89
2023/12/01 15:42:12;;;;;;;65.30;28.47;;;0.40;99.90;;;;;;9662014;23;20507;-88
2023/12/01 15:45:58;;;;;;;60.97;28.87;;;0.40;99.90;;;;;;9662132;23;20177;-90
2023/12/01 15:50:04;;;;;;;61.20;28.37;;;0.40;99.90;;;;;;9661878;23;20164;-89
2023/12/01 15:53:49;;;;;;;63.03;27.67;;;0.40;99.90;;;;;;9661781;23;20197;-88
2023/12/01 15:57:35;;;;;;;58.63;27.20;;;0.40;99.90;;;;;;9661585;23;20177;-89
2023/12/01 16:01:21;;;;;;;75.07;31.50;;;0.40;99.90;;;;;;9662763;23;20161;-89
2023/12/01 16:05:14;;;;;;;78.17;35.33;;;0.40;99.90;;;;;;9664049;23;20238;-91
2023/12/01 16:08:59;;;;;;;83.07;35.63;;;0.40;99.90;;;;;;9664498;23;20183;-89
2023/12/01 16:12:45;;;;;;;66.10;28.60;;;0.40;99.90;;;;;;9664658;23;20158;-89
2023/12/01 16:16:45;;;;;;;69.03;30.27;;;0.30;99.90;;;;;;9664180;23;20220;-89
2023/12/01 16:20:31;;;;;;;58.23;25.33;;;0.30;99.90;;;;;;9691010;23;20168;-88
2023/12/01 16:24:16;;;;;;;59.53;26.50;;;0.30;99.90;;;;;;9665119;23;20161;-89
2023/12/01 16:28:02;;;;;;;56.63;26.40;;;0.30;99.90;;;;;;9663921;23;20645;-89
2023/12/01 16:31:48;;;;;;;54.00;24.73;;;0.30;99.90;;;;;;9664232;23;20651;-88
2023/12/01 16:35:33;;;;;;;52.17;24.30;;;0.20;99.90;;;;;;9664006;23;20660;-89
2023/12/01 16:39:19;;;;;;;48.83;22.47;;;0.30;99.90;;;;;;9664474;23;20627;-89
2023/12/01 16:43:05;;;;;;;49.20;21.93;;;0.30;99.90;;;;;;9664185;23;20168;-89
2023/12/01 16:46:50;;;;;;;50.97;22.93;;;0.20;99.90;;;;;;9664384;23;20190;-89
2023/12/01 16:50:40;;;;;;;52.77;25.73;;;0.30;99.90;;;;;;9664071;23;20168;-89
2023/12/01 16:54:26;;;;;;;60.37;27.97;;;0.30;99.90;;;;;;9663759;23;20184;-89
2023/12/01 16:58:14;;;;;;;54.87;26.27;;;0.30;99.90;;;;;;9663727;23;20203;-89
2023/12/01 17:01:59;;;;;;;48.20;23.17;;;0.20;99.90;;;;;;9663887;23;20164;-90
2023/12/01 17:05:45;;;;;;;52.90;23.30;;;0.30;99.90;;;;;;9663669;23;20181;-89
2023/12/01 17:09:31;;;;;;;49.93;23.50;;;0.30;99.90;;;;;;9663885;23;20736;-88
2023/12/01 17:13:17;;;;;;;53.70;23.03;;;0.20;99.90;;;;;;9663267;23;20499;-89
2023/12/01 17:17:02;;;;;;;45.77;21.47;;;0.20;99.90;;;;;;9663432;23;20208;-89
2023/12/01 17:20:48;;;;;;;52.83;23.23;;;0.20;99.90;;;;;;9665634;23;20160;-89
2023/12/01 17:24:38;;;;;;;50.43;22.97;;;0.20;99.90;;;;;;9666868;23;20161;-90
2023/12/01 17:28:23;;;;;;;50.70;22.50;;;0.10;99.90;;;;;;9692423;23;20252;-89
2023/12/01 17:32:09;;;;;;;47.13;21.00;;;0.10;99.90;;;;;;9663643;23;20173;-88
2023/12/01 17:35:55;;;;;;;45.23;20.43;;;0.20;99.90;;;;;;9663059;23;20185;-88
2023/12/01 17:39:45;;;;;;;48.50;22.87;;;0.10;99.90;;;;;;9662729;23;20160;-88
2023/12/01 17:43:31;;;;;;;48.93;23.13;;;0.10;99.90;;;;;;9689879;23;20142;-89
2023/12/01 17:47:16;;;;;;;43.73;20.70;;;0.20;99.90;;;;;;9662490;23;20185;-90
2023/12/01 17:51:16;;;;;;;45.03;20.77;;;0.20;99.90;;;;;;9662880;23;20625;-89
2023/12/01 17:55:16;;;;;;;41.13;19.80;;;0.10;99.90;;;;;;9662931;23;20212;-89
2023/12/01 17:59:02;;;;;;;51.93;26.47;;;0.10;99.90;;;;;;9682684;23;20497;-88
2023/12/01 18:02:56;;;;;;;43.20;22.17;;;0.00;99.90;;;;;;9656967;23;20181;-89
2023/12/01 18:06:41;;;;;;;39.77;20.37;;;0.00;99.90;;;;;;9661908;23;20181;-91
2023/12/01 18:10:31;;;;;;;47.97;24.23;;;0.10;99.90;;;;;;9661940;23;20172;-88
2023/12/01 18:14:17;;;;;;;43.43;20.57;;;0.00;99.90;;;;;;9662519;23;20567;-89
2023/12/01 18:18:04;;;;;;;68.70;32.37;;;0.00;99.90;;;;;;9653307;23;20511;-88
2023/12/01 18:21:57;;;;;;;48.50;24.23;;;0.00;99.90;;;;;;9662154;23;20153;-89
2023/12/01 18:25:43;;;;;;;49.83;23.73;;;0.00;99.90;;;;;;9661691;23;20193;-88
2023/12/01 18:29:29;;;;;;;39.53;18.50;;;0.00;99.90;;;;;;9662303;23;20157;-89
2023/12/01 18:33:14;;;;;;;44.30;21.60;;;0.10;99.90;;;;;;9662330;23;20163;-89
2023/12/01 18:37:00;;;;;;;37.80;18.73;;;0.00;99.90;;;;;;9661797;23;20706;-89
2023/12/01 18:40:45;;;;;;;43.13;20.27;;;0.00;99.90;;;;;;9662101;23;20187;-88
2023/12/01 18:44:32;;;;;;;41.67;20.73;;;0.00;99.90;;;;;;9661553;23;20161;-88
2023/12/01 18:48:17;;;;;;;43.10;20.57;;;0.00;99.90;;;;;;9661677;23;20263;-89
2023/12/01 18:52:11;;;;;;;42.40;19.87;;;0.00;99.90;;;;;;9662640;23;20271;-88
2023/12/01 18:55:57;;;;;;;43.97;21.03;;;0.00;99.90;;;;;;9661857;23;20196;-89
2023/12/01 18:59:42;;;;;;;39.83;21.57;;;-0.10;99.90;;;;;;9662631;23;20154;-88
2023/12/01 19:03:28;;;;;;;41.07;20.07;;;-0.10;99.90;;;;;;9662693;23;20203;-89
2023/12/01 19:07:14;;;;;;;37.40;19.23;;;-0.10;99.90;;;;;;9662216;23;20183;-89
2023/12/01 19:11:00;;;;;;;48.37;23.37;;;-0.10;99.90;;;;;;9662221;23;20161;-89
2023/12/01 19:14:45;;;;;;;39.23;18.90;;;-0.10;99.90;;;;;;9661882;23;20506;-88
2023/12/01 19:18:31;;;;;;;35.53;16.90;;;-0.10;99.90;;;;;;9662151;23;20485;-89